Time;durP1;ratioP1;P1;durP2;ratioP2;P2;SDS_P1;SDS_P2;PMS_P1;PMS_P2;Temp;Humidity;BMP_temperature;BMP_pressure;BME280_temperature;BME280_humidity;BME280_pressure;Samples;Min_cycle;Max_cycle;Signal;HPM_P1;HPM_P2
2023/10/23 00:01:50;;;;;;;12.87;2.53;;;7.90;98.30;;;;;;5046898;28;20577;-65
2023/10/23 00:04:17;;;;;;;5.10;2.03;;;7.90;98.40;;;;;;5047456;28;20619;-65
2023/10/23 00:06:43;;;;;;;6.30;2.20;;;7.90;98.50;;;;;;5047230;28;20566;-65
2023/10/23 00:09:11;;;;;;;4.00;1.90;;;7.90;98.40;;;;;;5042816;28;20475;-67
2023/10/23 00:11:39;;;;;;;12.13;2.60;;;7.90;98.40;;;;;;5046137;28;20846;-66
2023/10/23 00:14:06;;;;;;;4.97;2.00;;;7.90;98.40;;;;;;5045538;28;20487;-67
2023/10/23 00:16:33;;;;;;;24.07;4.00;;;7.90;98.40;;;;;;5045271;28;20489;-66
2023/10/23 00:19:00;;;;;;;7.00;2.60;;;7.80;98.30;;;;;;5047839;28;20811;-67
2023/10/23 00:21:28;;;;;;;4.10;1.93;;;7.60;98.10;;;;;;5040544;28;20559;-66
2023/10/23 00:23:56;;;;;;;15.80;3.20;;;7.50;98.40;;;;;;5074713;28;20997;-67
2023/10/23 00:26:24;;;;;;;7.83;3.80;;;7.50;98.40;;;;;;5046163;28;20488;-65
2023/10/23 00:28:53;;;;;;;8.93;3.20;;;;;;;;;;5046866;28;20483;-63
2023/10/23 00:31:19;;;;;;;6.23;2.80;;;7.50;98.40;;;;;;5048489;28;20486;-62
2023/10/23 00:33:46;;;;;;;13.50;4.03;;;7.50;98.50;;;;;;5048199;28;20562;-62
2023/10/23 00:36:13;;;;;;;15.00;3.77;;;7.50;98.60;;;;;;5047283;28;20856;-62
2023/10/23 00:38:40;;;;;;;3.90;2.50;;;7.50;98.60;;;;;;5051269;28;20586;-61
2023/10/23 00:41:06;;;;;;;15.03;4.50;;;7.50;98.70;;;;;;5050371;28;20558;-61
2023/10/23 00:43:39;;;;;;;13.60;4.13;;;7.50;98.70;;;;;;5047303;28;20489;-60
2023/10/23 00:46:13;;;;;;;8.97;4.47;;;7.50;98.80;;;;;;5059261;28;20546;-61
2023/10/23 00:48:40;;;;;;;4.23;2.00;;;7.50;98.80;;;;;;5046709;28;20520;-61
2023/10/23 00:51:08;;;;;;;12.87;3.10;;;7.50;98.60;;;;;;5061534;28;20467;-60
2023/10/23 00:53:38;;;;;;;6.60;2.50;;;7.40;99.00;;;;;;5060776;28;20483;-62
2023/10/23 00:56:07;;;;;;;4.30;2.27;;;7.30;99.00;;;;;;5062602;28;20501;-61
2023/10/23 00:58:39;;;;;;;17.07;3.50;;;7.30;99.30;;;;;;5061242;28;20708;-60
2023/10/23 01:01:09;;;;;;;9.87;2.60;;;7.40;99.20;;;;;;5061162;28;20487;-61
2023/10/23 01:03:36;;;;;;;18.53;3.27;;;7.40;99.10;;;;;;5061178;28;20479;-61
2023/10/23 01:06:03;;;;;;;5.93;2.40;;;7.30;98.90;;;;;;5061953;28;20569;-61
2023/10/23 01:08:29;;;;;;;5.00;2.70;;;7.30;99.10;;;;;;5060951;28;20540;-63
2023/10/23 01:10:56;;;;;;;12.33;2.70;;;7.30;98.90;;;;;;5061122;28;20479;-61
2023/10/23 01:13:25;;;;;;;3.67;2.47;;;7.30;98.70;;;;;;5057893;28;20800;-62
2023/10/23 01:15:52;;;;;;;3.50;2.27;;;7.30;98.80;;;;;;5062746;28;20562;-61
2023/10/23 01:18:21;;;;;;;4.40;2.60;;;7.20;98.70;;;;;;5061585;28;20846;-63
2023/10/23 01:20:48;;;;;;;5.60;2.47;;;7.00;99.00;;;;;;5060275;28;21053;-61
2023/10/23 01:23:15;;;;;;;4.37;2.33;;;7.00;99.40;;;;;;5060597;28;21058;-60
2023/10/23 01:25:43;;;;;;;2.90;1.80;;;7.00;99.60;;;;;;5061303;28;20566;-61
2023/10/23 01:28:10;;;;;;;2.37;2.03;;;7.00;99.50;;;;;;5055750;28;20588;-62
2023/10/23 01:30:38;;;;;;;4.40;2.03;;;6.90;99.70;;;;;;5059088;28;20479;-62
2023/10/23 01:33:04;;;;;;;11.13;2.73;;;6.80;99.90;;;;;;5061940;28;20698;-63
2023/10/23 01:35:32;;;;;;;7.00;3.00;;;;;;;;;;5054711;28;20586;-63
2023/10/23 01:37:58;;;;;;;6.50;2.67;;;6.60;99.90;;;;;;5061982;28;20514;-61
2023/10/23 01:40:25;;;;;;;5.07;2.37;;;6.60;99.90;;;;;;5059709;28;20489;-63
2023/10/23 01:42:53;;;;;;;2.77;1.50;;;6.60;99.90;;;;;;5061841;28;20541;-61
2023/10/23 01:45:20;;;;;;;8.83;2.50;;;6.50;99.90;;;;;;5079019;28;20479;-61
2023/10/23 01:47:47;;;;;;;10.27;2.27;;;6.50;99.90;;;;;;5074455;28;20567;-68
2023/10/23 01:50:13;;;;;;;5.23;1.87;;;6.50;99.90;;;;;;5071523;28;20917;-67
2023/10/23 01:52:41;;;;;;;3.83;1.93;;;6.60;99.90;;;;;;5059986;28;21024;-68
2023/10/23 01:55:09;;;;;;;3.67;2.70;;;6.60;99.90;;;;;;5060844;28;20483;-67
2023/10/23 01:57:35;;;;;;;6.37;2.53;;;6.60;99.90;;;;;;5059607;28;21100;-66
2023/10/23 02:00:05;;;;;;;6.20;2.40;;;6.50;99.90;;;;;;5061391;28;20875;-67
2023/10/23 02:02:32;;;;;;;3.70;2.00;;;6.60;99.90;;;;;;5060946;28;20566;-68
2023/10/23 02:04:58;;;;;;;4.90;2.30;;;6.80;99.90;;;;;;5061217;28;20577;-67
2023/10/23 02:07:26;;;;;;;2.20;1.70;;;6.80;99.90;;;;;;5059963;28;20882;-66
2023/10/23 02:09:53;;;;;;;17.07;2.73;;;6.90;99.90;;;;;;5060093;28;20475;-67
2023/10/23 02:12:20;;;;;;;19.27;2.50;;;7.00;99.90;;;;;;5058226;28;20475;-66
2023/10/23 02:14:50;;;;;;;2.97;2.50;;;7.00;99.90;;;;;;5078078;28;20593;-68
2023/10/23 02:17:18;;;;;;;4.00;2.30;;;7.10;99.90;;;;;;5058596;28;20570;-68
2023/10/23 02:19:45;;;;;;;20.10;3.30;;;7.10;99.90;;;;;;5048228;28;21037;-67
2023/10/23 02:22:12;;;;;;;4.00;2.53;;;7.10;99.90;;;;;;5086072;28;20554;-67
2023/10/23 02:24:39;;;;;;;2.57;1.90;;;7.10;99.90;;;;;;5071722;28;20479;-68
2023/10/23 02:27:06;;;;;;;4.30;2.33;;;7.10;99.80;;;;;;5068836;28;20541;-66
2023/10/23 02:29:33;;;;;;;11.07;2.27;;;7.00;99.70;;;;;;5033627;28;21004;-68
2023/10/23 02:32:00;;;;;;;5.03;2.20;;;7.00;99.90;;;;;;5082219;28;20589;-67
2023/10/23 02:34:28;;;;;;;3.07;2.43;;;7.00;99.90;;;;;;5059747;28;20479;-67
2023/10/23 02:36:56;;;;;;;3.60;2.30;;;7.00;99.90;;;;;;5044935;28;20566;-67
2023/10/23 02:39:24;;;;;;;2.90;2.10;;;7.00;99.90;;;;;;5077402;28;21025;-66
2023/10/23 02:41:51;;;;;;;3.60;2.37;;;7.10;99.90;;;;;;5066912;28;20469;-68
2023/10/23 02:44:18;;;;;;;4.63;2.50;;;7.10;99.90;;;;;;5037763;28;20481;-68
2023/10/23 02:46:44;;;;;;;15.37;2.77;;;7.10;99.80;;;;;;5077098;28;20556;-68
2023/10/23 02:49:12;;;;;;;2.80;2.10;;;7.10;99.60;;;;;;5058141;28;20985;-62
2023/10/23 02:51:40;;;;;;;3.90;2.03;;;7.10;99.50;;;;;;5058271;28;20582;-63
2023/10/23 02:54:07;;;;;;;11.53;2.00;;;7.00;99.10;;;;;;5060423;28;20465;-61
2023/10/23 02:56:34;;;;;;;3.47;1.90;;;6.80;99.50;;;;;;5077459;28;21012;-62
2023/10/23 02:59:01;;;;;;;7.70;2.47;;;6.80;99.50;;;;;;5059010;28;20486;-62
2023/10/23 03:01:27;;;;;;;10.03;2.97;;;6.60;99.50;;;;;;5054422;28;20475;-61
2023/10/23 03:03:54;;;;;;;2.27;1.80;;;6.70;99.80;;;;;;5069485;28;20568;-61
2023/10/23 03:06:21;;;;;;;3.40;2.40;;;6.70;99.80;;;;;;5066508;28;21394;-61
2023/10/23 03:08:49;;;;;;;8.17;2.50;;;6.80;99.70;;;;;;5027450;28;20482;-63
2023/10/23 03:11:16;;;;;;;3.07;1.80;;;6.80;99.60;;;;;;5076926;28;20562;-63
2023/10/23 03:13:43;;;;;;;2.13;1.57;;;6.80;99.60;;;;;;5078450;28;20869;-62
2023/10/23 03:16:10;;;;;;;4.93;2.00;;;6.90;99.50;;;;;;5050474;28;20564;-62
2023/10/23 03:18:36;;;;;;;3.10;2.20;;;6.90;99.50;;;;;;5082806;28;20569;-62
2023/10/23 03:21:03;;;;;;;32.07;4.43;;;6.90;99.90;;;;;;5076058;28;21015;-62
2023/10/23 03:23:31;;;;;;;2.73;2.03;;;7.00;99.90;;;;;;5059473;28;20562;-62
2023/10/23 03:26:00;;;;;;;13.83;2.33;;;7.00;99.90;;;;;;5058959;28;20490;-63
2023/10/23 03:28:26;;;;;;;12.77;2.90;;;7.00;99.90;;;;;;5054228;28;20487;-61
2023/10/23 03:30:53;;;;;;;2.80;1.90;;;7.00;99.90;;;;;;5061579;28;20885;-62
2023/10/23 03:33:20;;;;;;;5.63;2.00;;;7.00;99.80;;;;;;5071062;28;20479;-63
2023/10/23 03:35:47;;;;;;;13.10;2.37;;;7.10;99.70;;;;;;5056311;28;20591;-62
2023/10/23 03:38:15;;;;;;;4.37;2.47;;;7.10;99.90;;;;;;5079630;28;20486;-62
2023/10/23 03:40:41;;;;;;;9.10;2.63;;;7.10;99.90;;;;;;5050892;28;20828;-62
2023/10/23 03:43:10;;;;;;;6.23;2.33;;;7.10;99.90;;;;;;5079522;28;20828;-61
2023/10/23 03:45:37;;;;;;;12.70;3.10;;;7.10;99.90;;;;;;5069322;28;20539;-62
2023/10/23 03:48:04;;;;;;;4.93;2.10;;;7.10;99.90;;;;;;5056835;28;20519;-63
2023/10/23 03:50:31;;;;;;;4.70;2.77;;;7.10;99.90;;;;;;5077075;28;20500;-63
2023/10/23 03:52:58;;;;;;;6.10;3.20;;;7.10;99.90;;;;;;5055669;28;20554;-62
2023/10/23 03:55:25;;;;;;;13.03;2.13;;;7.10;99.90;;;;;;5053788;28;20481;-60
2023/10/23 03:57:51;;;;;;;2.53;1.60;;;7.10;99.90;;;;;;5055115;28;20479;-68
2023/10/23 04:00:20;;;;;;;9.33;2.70;;;7.00;99.80;;;;;;5049944;28;20559;-66
2023/10/23 04:02:47;;;;;;;10.13;2.10;;;;;;;;;;5051905;28;20503;-67
2023/10/23 04:05:14;;;;;;;2.97;2.30;;;7.00;99.90;;;;;;5059209;28;20479;-67
2023/10/23 04:07:41;;;;;;;8.57;2.23;;;7.00;99.90;;;;;;5052247;28;20475;-63
2023/10/23 04:10:08;;;;;;;2.17;1.80;;;7.10;99.90;;;;;;5067499;28;20483;-61
2023/10/23 04:12:35;;;;;;;3.77;2.27;;;7.00;99.90;;;;;;5068453;28;20487;-61
2023/10/23 04:15:03;;;;;;;3.70;2.47;;;7.00;99.90;;;;;;5059470;28;20586;-62
2023/10/23 04:17:31;;;;;;;2.37;1.90;;;7.00;99.90;;;;;;5057321;28;20499;-62
2023/10/23 04:19:58;;;;;;;4.40;1.90;;;;;;;;;;5050416;28;20478;-61
2023/10/23 04:22:25;;;;;;;3.33;2.63;;;7.00;99.90;;;;;;5058704;28;21021;-62
2023/10/23 04:24:53;;;;;;;4.37;3.00;;;7.00;99.70;;;;;;5059041;28;20494;-61
2023/10/23 04:27:20;;;;;;;3.17;2.30;;;7.00;99.60;;;;;;5055599;28;20880;-62
2023/10/23 04:29:47;;;;;;;24.00;2.93;;;;;;;;;;5052806;28;20548;-61
2023/10/23 04:32:14;;;;;;;5.07;2.07;;;6.90;99.20;;;;;;5069173;28;20479;-61
2023/10/23 04:34:42;;;;;;;7.10;2.37;;;6.90;99.00;;;;;;5056059;28;20902;-62
2023/10/23 04:37:09;;;;;;;10.30;2.27;;;6.80;99.00;;;;;;5058494;28;20570;-63
2023/10/23 04:39:36;;;;;;;3.20;1.83;;;6.80;99.00;;;;;;5068348;28;20567;-63
2023/10/23 04:42:03;;;;;;;8.70;2.30;;;6.80;98.90;;;;;;5062880;28;20525;-63
2023/10/23 04:44:29;;;;;;;2.33;1.70;;;6.80;98.90;;;;;;5056256;28;20896;-62
2023/10/23 04:46:56;;;;;;;2.80;1.90;;;6.80;99.20;;;;;;5071679;28;20567;-62
2023/10/23 04:49:23;;;;;;;3.50;1.50;;;6.70;99.20;;;;;;5081239;28;20536;-62
2023/10/23 04:51:51;;;;;;;12.87;2.03;;;6.70;99.10;;;;;;5053072;28;20715;-62
2023/10/23 04:54:18;;;;;;;6.07;1.73;;;6.70;98.90;;;;;;5056823;28;20901;-62
2023/10/23 04:56:45;;;;;;;2.17;1.63;;;6.70;98.80;;;;;;5050320;28;21010;-63
2023/10/23 04:59:12;;;;;;;3.37;1.93;;;6.60;98.60;;;;;;5084705;28;20542;-62
2023/10/23 05:01:39;;;;;;;3.03;2.13;;;6.60;98.70;;;;;;5056858;28;21045;-62
2023/10/23 05:04:06;;;;;;;5.20;2.27;;;6.60;99.10;;;;;;5059399;28;21064;-61
2023/10/23 05:06:34;;;;;;;10.30;2.70;;;6.50;99.10;;;;;;5053971;28;20479;-62
2023/10/23 05:09:04;;;;;;;18.43;2.90;;;6.50;98.90;;;;;;5034563;28;20493;-67
2023/10/23 05:11:31;;;;;;;8.03;1.93;;;6.50;99.00;;;;;;5056110;28;20556;-68
2023/10/23 05:13:58;;;;;;;4.13;2.30;;;6.50;99.10;;;;;;5065014;28;20469;-67
2023/10/23 05:16:25;;;;;;;3.37;1.70;;;6.50;98.90;;;;;;5059241;28;20533;-66
2023/10/23 05:18:52;;;;;;;4.73;2.60;;;6.50;98.90;;;;;;5027936;28;20558;-61
2023/10/23 05:21:18;;;;;;;9.00;2.10;;;6.50;99.10;;;;;;5071903;28;20490;-62
2023/10/23 05:23:45;;;;;;;2.70;1.90;;;6.40;98.90;;;;;;5043102;28;21072;-61
2023/10/23 05:26:14;;;;;;;3.00;2.50;;;6.40;98.80;;;;;;5053360;28;20562;-61
2023/10/23 05:28:41;;;;;;;3.07;2.47;;;6.40;98.70;;;;;;5073309;28;20999;-63
2023/10/23 05:31:09;;;;;;;2.10;1.47;;;6.40;98.80;;;;;;5060723;28;20996;-61
2023/10/23 05:33:36;;;;;;;4.20;2.00;;;6.40;98.80;;;;;;5052158;28;20457;-62
2023/10/23 05:36:04;;;;;;;2.50;1.40;;;6.30;98.80;;;;;;5060495;28;20494;-61
2023/10/23 05:38:31;;;;;;;3.40;1.63;;;6.30;99.50;;;;;;5056560;28;20569;-62
2023/10/23 05:40:58;;;;;;;11.13;3.10;;;;;;;;;;5051847;28;20994;-60
2023/10/23 05:43:27;;;;;;;2.77;2.00;;;6.20;99.00;;;;;;5071075;28;20486;-61
2023/10/23 05:45:54;;;;;;;29.43;3.57;;;6.10;98.90;;;;;;5050212;28;20553;-61
2023/10/23 05:48:21;;;;;;;2.30;1.60;;;6.00;98.50;;;;;;5070177;28;20564;-63
2023/10/23 05:50:58;;;;;;;5.73;3.20;;;5.90;98.50;;;;;;5070708;28;20542;-63
2023/10/23 05:53:24;;;;;;;6.83;2.13;;;5.90;98.90;;;;;;5045871;28;20565;-61
2023/10/23 05:55:51;;;;;;;2.17;1.63;;;5.90;99.00;;;;;;5066841;28;21329;-62
2023/10/23 05:58:18;;;;;;;1.80;1.20;;;5.90;99.20;;;;;;5073024;28;21058;-66
2023/10/23 06:00:46;;;;;;;5.97;2.27;;;6.00;99.20;;;;;;5076092;28;20519;-67
2023/10/23 06:03:13;;;;;;;4.67;2.70;;;6.00;99.50;;;;;;5079632;28;20926;-66
2023/10/23 06:05:41;;;;;;;3.13;2.30;;;6.00;99.80;;;;;;5064899;28;20536;-65
2023/10/23 06:08:07;;;;;;;13.43;2.50;;;6.00;99.70;;;;;;5060750;28;20486;-62
2023/10/23 06:10:40;;;;;;;6.10;3.47;;;6.10;99.40;;;;;;5059426;28;20503;-61
2023/10/23 06:13:07;;;;;;;25.03;4.50;;;6.00;99.30;;;;;;5049173;28;20475;-61
2023/10/23 06:15:34;;;;;;;7.20;3.17;;;6.00;99.80;;;;;;5061163;28;21181;-60
2023/10/23 06:18:02;;;;;;;9.00;3.17;;;6.00;99.90;;;;;;5059906;28;20479;-62
2023/10/23 06:20:29;;;;;;;11.43;2.40;;;6.10;99.90;;;;;;5064151;28;20571;-62
2023/10/23 06:22:56;;;;;;;2.40;1.70;;;6.10;99.90;;;;;;5049321;28;20952;-62
2023/10/23 06:25:23;;;;;;;3.40;2.10;;;6.10;99.90;;;;;;5059892;28;20779;-62
2023/10/23 06:27:50;;;;;;;18.33;2.80;;;6.20;99.90;;;;;;5060255;28;20569;-65
2023/10/23 06:30:16;;;;;;;2.00;1.00;;;6.20;99.90;;;;;;5059953;28;20485;-66
2023/10/23 06:32:43;;;;;;;2.67;1.93;;;6.20;99.90;;;;;;5060254;28;20510;-66
2023/10/23 06:35:11;;;;;;;5.83;2.17;;;6.30;99.90;;;;;;5051010;28;20550;-66
2023/10/23 06:37:38;;;;;;;2.00;1.70;;;6.40;99.90;;;;;;5052946;28;20594;-66
2023/10/23 06:40:06;;;;;;;3.70;2.60;;;6.40;99.90;;;;;;5056141;28;20901;-66
2023/10/23 06:42:33;;;;;;;5.57;4.63;;;6.50;99.90;;;;;;5050568;28;21082;-66
2023/10/23 06:45:00;;;;;;;7.17;6.20;;;6.60;99.90;;;;;;5083310;28;20487;-65
2023/10/23 06:47:26;;;;;;;8.40;6.03;;;6.60;99.90;;;;;;5059300;28;20934;-65
2023/10/23 06:49:52;;;;;;;4.10;3.47;;;6.70;99.90;;;;;;5058843;28;20544;-67
2023/10/23 06:52:20;;;;;;;27.33;3.50;;;6.70;99.90;;;;;;5065243;28;20245;-66
2023/10/23 06:54:47;;;;;;;20.60;2.93;;;6.70;99.90;;;;;;5074957;28;20542;-66
2023/10/23 06:57:14;;;;;;;2.00;1.80;;;6.80;99.90;;;;;;5059452;28;20600;-66
2023/10/23 06:59:41;;;;;;;5.23;2.30;;;6.80;99.90;;;;;;5057233;28;20597;-67
2023/10/23 07:02:09;;;;;;;8.67;2.37;;;6.80;99.90;;;;;;5056629;28;20489;-67
2023/10/23 07:04:35;;;;;;;11.53;2.70;;;6.80;99.90;;;;;;5078642;28;20811;-67
2023/10/23 07:07:03;;;;;;;4.97;2.73;;;6.90;99.90;;;;;;5052650;28;20918;-66
2023/10/23 07:09:32;;;;;;;10.60;2.30;;;6.90;99.90;;;;;;5059268;28;20960;-67
2023/10/23 07:11:59;;;;;;;12.43;2.40;;;6.90;99.90;;;;;;5057635;28;20508;-65
2023/10/23 07:14:26;;;;;;;3.10;2.40;;;7.00;99.90;;;;;;5071639;28;20517;-66
2023/10/23 07:16:52;;;;;;;3.90;2.67;;;7.10;99.90;;;;;;5063720;28;20540;-67
2023/10/23 07:19:19;;;;;;;2.60;2.03;;;7.10;99.90;;;;;;5074101;28;20477;-65
2023/10/23 07:21:46;;;;;;;11.47;2.37;;;7.20;99.90;;;;;;5058711;28;20493;-66
2023/10/23 07:24:13;;;;;;;13.13;2.40;;;7.20;99.90;;;;;;5070781;28;20599;-65
2023/10/23 07:26:42;;;;;;;5.37;2.43;;;7.30;99.90;;;;;;5075752;28;20568;-67
2023/10/23 07:29:09;;;;;;;32.23;3.67;;;7.40;99.90;;;;;;5063471;28;20574;-61
2023/10/23 07:31:36;;;;;;;6.23;3.10;;;7.40;99.90;;;;;;5055764;28;20636;-61
2023/10/23 07:34:04;;;;;;;12.40;3.17;;;7.40;99.90;;;;;;5079750;28;20487;-61
2023/10/23 07:36:31;;;;;;;4.20;2.67;;;7.50;99.90;;;;;;5074547;28;20569;-62
2023/10/23 07:38:57;;;;;;;14.70;3.60;;;7.50;99.90;;;;;;5058756;28;20541;-65
2023/10/23 07:41:24;;;;;;;3.80;2.30;;;7.50;99.90;;;;;;5067837;28;20484;-65
2023/10/23 07:43:52;;;;;;;7.23;2.90;;;7.60;99.90;;;;;;5070999;28;20505;-66
2023/10/23 07:46:19;;;;;;;3.40;2.20;;;7.70;99.90;;;;;;5063119;28;20480;-66
2023/10/23 07:48:46;;;;;;;3.27;2.80;;;7.70;99.90;;;;;;5080477;28;20477;-66
2023/10/23 07:51:13;;;;;;;3.87;3.27;;;7.80;99.90;;;;;;5080081;28;20556;-65
2023/10/23 07:53:40;;;;;;;13.73;3.13;;;7.90;99.90;;;;;;5050974;28;20977;-66
2023/10/23 07:56:07;;;;;;;3.23;2.13;;;8.00;99.90;;;;;;5055356;28;20628;-65
2023/10/23 07:58:34;;;;;;;11.63;2.73;;;8.00;99.90;;;;;;5060074;28;20482;-65
2023/10/23 08:01:07;;;;;;;4.10;3.00;;;8.10;99.90;;;;;;5071255;28;20665;-65
2023/10/23 08:03:34;;;;;;;41.37;4.80;;;8.10;99.90;;;;;;5057740;28;20496;-66
2023/10/23 08:06:03;;;;;;;4.50;2.70;;;8.20;99.90;;;;;;5049401;28;20900;-65
2023/10/23 08:08:30;;;;;;;7.70;3.07;;;8.30;99.90;;;;;;5057798;28;20666;-66
2023/10/23 08:10:56;;;;;;;6.63;3.13;;;8.40;99.90;;;;;;5057716;28;20489;-66
2023/10/23 08:13:23;;;;;;;7.00;2.97;;;8.40;99.90;;;;;;5054432;28;20565;-66
2023/10/23 08:15:50;;;;;;;4.10;2.93;;;8.50;99.90;;;;;;5055598;28;20483;-65
2023/10/23 08:18:19;;;;;;;3.90;2.70;;;8.60;99.90;;;;;;5052904;28;21084;-65
2023/10/23 08:20:46;;;;;;;4.87;2.47;;;8.60;99.90;;;;;;5055471;28;21063;-67
2023/10/23 08:23:12;;;;;;;4.73;2.80;;;8.60;99.90;;;;;;5030830;28;20508;-65
2023/10/23 08:25:41;;;;;;;7.47;3.20;;;8.70;99.90;;;;;;5066604;28;22458;-66
2023/10/23 08:28:08;;;;;;;19.73;3.43;;;8.80;99.90;;;;;;5053249;28;20549;-65
2023/10/23 08:30:34;;;;;;;6.77;2.63;;;8.90;99.90;;;;;;5060411;28;20483;-67
2023/10/23 08:33:03;;;;;;;10.57;4.07;;;8.90;99.90;;;;;;5059046;28;20470;-66
2023/10/23 08:35:32;;;;;;;7.83;2.93;;;9.00;99.90;;;;;;5057561;28;20537;-66
2023/10/23 08:37:58;;;;;;;34.43;4.23;;;9.00;99.90;;;;;;5058464;28;20483;-62
2023/10/23 08:40:25;;;;;;;7.53;3.23;;;9.10;99.90;;;;;;5057096;28;20975;-62
2023/10/23 08:42:52;;;;;;;3.37;2.70;;;9.10;99.90;;;;;;5057905;28;20965;-61
2023/10/23 08:45:19;;;;;;;5.70;3.10;;;;;;;;;;5028485;28;20554;-62
2023/10/23 08:47:46;;;;;;;15.50;3.13;;;9.40;99.90;;;;;;5062297;28;20556;-62
2023/10/23 08:50:13;;;;;;;9.63;3.23;;;9.50;99.90;;;;;;5053584;28;20564;-62
2023/10/23 08:52:46;;;;;;;8.80;2.77;;;9.70;99.90;;;;;;5065345;28;20475;-62
2023/10/23 08:55:14;;;;;;;3.83;3.50;;;9.80;99.90;;;;;;5053604;28;20717;-62
2023/10/23 08:57:44;;;;;;;6.23;3.40;;;9.90;99.90;;;;;;5050424;28;20491;-62
2023/10/23 09:00:12;;;;;;;4.47;2.97;;;10.00;99.90;;;;;;5056127;28;20471;-61
2023/10/23 09:02:38;;;;;;;3.90;2.63;;;10.00;99.90;;;;;;5070749;28;20561;-62
2023/10/23 09:05:06;;;;;;;18.13;4.60;;;10.20;99.90;;;;;;5051803;28;20454;-62
2023/10/23 09:07:33;;;;;;;7.30;3.63;;;10.30;99.90;;;;;;5060594;28;21020;-61
2023/10/23 09:10:05;;;;;;;16.20;3.73;;;10.40;99.90;;;;;;5056990;28;20517;-62
2023/10/23 09:12:34;;;;;;;10.43;4.10;;;10.40;99.90;;;;;;5060947;28;20557;-62
2023/10/23 09:15:13;;;;;;;8.13;3.90;;;10.50;99.90;;;;;;5047770;28;20499;-62
2023/10/23 09:17:41;;;;;;;7.87;2.80;;;10.60;99.90;;;;;;5081767;28;20845;-62
2023/10/23 09:20:21;;;;;;;7.40;3.73;;;10.70;99.90;;;;;;5056727;28;20483;-61
2023/10/23 09:22:48;;;;;;;8.37;3.50;;;10.80;99.90;;;;;;5055257;28;20523;-61
2023/10/23 09:25:17;;;;;;;8.17;4.10;;;10.90;99.90;;;;;;5070444;28;20489;-62
2023/10/23 09:27:44;;;;;;;7.77;3.77;;;11.00;99.90;;;;;;5061330;28;21338;-64
2023/10/23 09:30:13;;;;;;;5.53;3.87;;;11.00;99.90;;;;;;5061070;28;20566;-62
2023/10/23 09:32:40;;;;;;;20.70;4.33;;;11.10;99.90;;;;;;5059193;28;20521;-62
2023/10/23 09:35:08;;;;;;;6.43;4.23;;;11.20;99.90;;;;;;5066967;28;20558;-62
2023/10/23 09:37:36;;;;;;;9.50;3.93;;;11.20;99.90;;;;;;5067413;28;20909;-62
2023/10/23 09:40:08;;;;;;;10.73;3.50;;;11.20;99.90;;;;;;5058845;28;20491;-63
2023/10/23 09:42:36;;;;;;;4.77;3.10;;;11.30;99.90;;;;;;5076289;28;20554;-62
2023/10/23 09:45:04;;;;;;;13.60;4.17;;;11.30;99.90;;;;;;5054642;28;20558;-63
2023/10/23 09:47:35;;;;;;;14.40;4.77;;;11.40;99.90;;;;;;5084469;28;20836;-66
2023/10/23 09:50:03;;;;;;;8.07;4.67;;;11.40;99.90;;;;;;5055045;28;21352;-66
2023/10/23 09:52:33;;;;;;;3.80;3.33;;;11.50;99.90;;;;;;5072886;28;20564;-65
2023/10/23 09:55:03;;;;;;;10.63;4.33;;;11.60;99.90;;;;;;5085530;28;20485;-66
2023/10/23 09:57:36;;;;;;;10.20;5.13;;;11.60;99.90;;;;;;5079205;28;20568;-62
2023/10/23 10:00:13;;;;;;;12.80;4.67;;;11.70;99.90;;;;;;5059429;28;20574;-66
2023/10/23 10:02:40;;;;;;;6.20;5.13;;;;;;;;;;5065570;28;20478;-65
2023/10/23 10:05:10;;;;;;;18.73;5.87;;;11.90;99.90;;;;;;5075781;28;20485;-66
2023/10/23 10:07:47;;;;;;;8.90;4.40;;;12.00;99.90;;;;;;5055506;28;20511;-66
2023/10/23 10:10:15;;;;;;;6.50;3.47;;;12.10;99.90;;;;;;5059443;28;20468;-65
2023/10/23 10:12:44;;;;;;;13.47;4.47;;;12.20;99.90;;;;;;5065449;28;20896;-66
2023/10/23 10:15:11;;;;;;;12.90;3.93;;;12.20;99.90;;;;;;5067186;28;20883;-66
2023/10/23 10:17:40;;;;;;;12.70;4.00;;;12.30;99.90;;;;;;5050214;28;20484;-65
2023/10/23 10:20:09;;;;;;;5.57;3.77;;;12.30;99.90;;;;;;5057446;28;20542;-65
2023/10/23 10:22:37;;;;;;;8.33;4.03;;;12.50;99.90;;;;;;5074217;28;20556;-66
2023/10/23 10:25:06;;;;;;;9.17;4.60;;;12.50;99.90;;;;;;5052150;28;20867;-66
2023/10/23 10:27:33;;;;;;;9.10;5.07;;;12.60;99.90;;;;;;5060236;28;20570;-67
2023/10/23 10:30:40;;;;;;;17.10;6.37;;;12.70;99.90;;;;;;5048813;28;20482;-66
2023/10/23 10:33:09;;;;;;;7.30;4.40;;;12.80;99.90;;;;;;5048117;28;20907;-66
2023/10/23 10:35:36;;;;;;;7.53;4.33;;;12.80;99.90;;;;;;5055860;28;20471;-65
2023/10/23 10:38:04;;;;;;;5.73;3.80;;;12.90;99.90;;;;;;5054100;28;21013;-65
2023/10/23 10:40:56;;;;;;;9.07;4.83;;;13.00;99.90;;;;;;5067096;28;20508;-66
2023/10/23 10:43:24;;;;;;;4.00;2.80;;;13.10;99.90;;;;;;5059823;28;20574;-65
2023/10/23 10:45:55;;;;;;;10.50;3.57;;;13.10;99.90;;;;;;5072257;28;20556;-65
2023/10/23 10:48:23;;;;;;;7.30;4.10;;;;;;;;;;5066380;28;20481;-65
2023/10/23 10:50:50;;;;;;;3.63;2.37;;;13.30;99.90;;;;;;5057574;28;20734;-65
2023/10/23 10:53:18;;;;;;;10.47;2.67;;;13.30;99.90;;;;;;5087043;28;20562;-65
2023/10/23 10:55:46;;;;;;;17.67;2.70;;;13.40;99.90;;;;;;5058059;28;20475;-65
2023/10/23 10:58:13;;;;;;;10.30;2.87;;;13.40;99.90;;;;;;5056070;28;20483;-62
2023/10/23 11:00:40;;;;;;;6.70;3.03;;;13.50;99.90;;;;;;5052745;28;20491;-62
2023/10/23 11:03:09;;;;;;;5.43;2.90;;;13.60;99.90;;;;;;5059610;28;21005;-62
2023/10/23 11:05:38;;;;;;;4.23;2.50;;;13.60;99.90;;;;;;5052531;28;20904;-62
2023/10/23 11:08:05;;;;;;;7.90;2.47;;;13.70;99.90;;;;;;5070823;28;20467;-63
2023/10/23 11:10:32;;;;;;;10.23;2.83;;;13.80;99.90;;;;;;5056225;28;21092;-62
2023/10/23 11:12:59;;;;;;;4.50;1.93;;;13.90;99.90;;;;;;5052020;28;20554;-62
2023/10/23 11:15:27;;;;;;;8.30;2.20;;;;;;;;;;5069735;28;20553;-62
2023/10/23 11:17:54;;;;;;;2.90;1.53;;;14.10;99.90;;;;;;5051631;28;20479;-62
2023/10/23 11:20:22;;;;;;;5.93;2.73;;;;;;;;;;5060891;28;20485;-61
2023/10/23 11:22:49;;;;;;;33.40;4.00;;;14.50;99.90;;;;;;5051353;28;21200;-62
2023/10/23 11:25:22;;;;;;;3.57;2.33;;;14.70;99.90;;;;;;5065208;28;21194;-62
2023/10/23 11:27:52;;;;;;;9.63;2.00;;;14.90;99.90;;;;;;5064826;28;21275;-61
2023/10/23 11:30:28;;;;;;;3.37;2.00;;;15.10;99.90;;;;;;5059741;28;21329;-62
2023/10/23 11:32:56;;;;;;;2.67;1.77;;;15.20;99.90;;;;;;5059424;28;20481;-62
2023/10/23 11:35:32;;;;;;;13.23;2.03;;;15.30;99.90;;;;;;5066279;28;21058;-62
2023/10/23 11:37:59;;;;;;;4.60;1.90;;;15.30;99.10;;;;;;5058262;28;20514;-62
2023/10/23 11:40:26;;;;;;;4.23;1.40;;;15.20;99.00;;;;;;5051330;28;20583;-62
2023/10/23 11:42:54;;;;;;;3.27;1.83;;;15.10;98.90;;;;;;5054224;28;21068;-62
2023/10/23 11:45:22;;;;;;;14.50;2.30;;;14.90;98.10;;;;;;5041822;28;20489;-61
2023/10/23 11:47:51;;;;;;;2.83;1.57;;;14.90;98.40;;;;;;5051662;28;20483;-62
2023/10/23 11:50:20;;;;;;;9.37;1.83;;;;;;;;;;5048753;28;20473;-63
2023/10/23 11:52:49;;;;;;;2.70;2.00;;;14.80;98.30;;;;;;5070027;28;20584;-63
2023/10/23 11:55:17;;;;;;;16.13;1.90;;;14.90;99.40;;;;;;5053829;28;20479;-62
2023/10/23 11:57:47;;;;;;;3.60;1.40;;;15.00;99.80;;;;;;5058830;28;21082;-62
2023/10/23 12:00:15;;;;;;;3.37;1.30;;;15.00;99.00;;;;;;5067725;28;20843;-62
2023/10/23 12:02:43;;;;;;;3.07;2.00;;;15.00;99.00;;;;;;5048653;28;20558;-62
2023/10/23 12:05:14;;;;;;;11.40;2.07;;;15.10;99.80;;;;;;5055192;28;21055;-61
2023/10/23 12:07:42;;;;;;;7.73;2.53;;;15.20;99.90;;;;;;5068241;28;20753;-62
2023/10/23 12:10:11;;;;;;;2.90;1.50;;;15.20;99.90;;;;;;5055742;28;20577;-62
2023/10/23 12:12:40;;;;;;;2.60;1.87;;;15.30;99.90;;;;;;5054005;28;20491;-62
2023/10/23 12:15:08;;;;;;;6.33;1.53;;;15.30;99.90;;;;;;5052299;28;21399;-63
2023/10/23 12:17:35;;;;;;;4.43;1.83;;;15.30;99.90;;;;;;5061336;28;20575;-66
2023/10/23 12:20:07;;;;;;;3.33;1.30;;;15.30;99.90;;;;;;5057653;28;20526;-64
2023/10/23 12:22:34;;;;;;;2.33;1.53;;;;;;;;;;5055500;28;20566;-63
2023/10/23 12:25:02;;;;;;;2.90;2.07;;;15.20;99.90;;;;;;5057073;28;20726;-63
2023/10/23 12:27:30;;;;;;;3.40;1.37;;;15.20;99.90;;;;;;5073794;28;20834;-63
2023/10/23 12:29:57;;;;;;;3.87;1.63;;;15.10;99.90;;;;;;5051266;28;20481;-63
2023/10/23 12:32:24;;;;;;;3.63;1.50;;;14.90;99.60;;;;;;5041057;28;20504;-64
2023/10/23 12:34:51;;;;;;;7.43;2.27;;;14.80;99.90;;;;;;5079306;28;20564;-63
2023/10/23 12:37:18;;;;;;;2.03;1.50;;;14.80;99.90;;;;;;5063665;28;20502;-64
2023/10/23 12:39:44;;;;;;;4.23;1.43;;;14.80;99.90;;;;;;5072813;28;20594;-62
2023/10/23 12:42:11;;;;;;;3.47;2.17;;;14.80;99.90;;;;;;5053718;28;20588;-62
2023/10/23 12:44:39;;;;;;;3.43;1.40;;;15.00;99.90;;;;;;5071784;28;20605;-62
2023/10/23 12:47:06;;;;;;;4.10;1.53;;;15.00;99.90;;;;;;5075699;28;20584;-62
2023/10/23 12:49:33;;;;;;;5.17;1.70;;;15.10;99.90;;;;;;5054659;28;20947;-63
2023/10/23 12:51:59;;;;;;;4.07;1.60;;;15.10;99.90;;;;;;5080635;28;20580;-62
2023/10/23 12:54:27;;;;;;;18.40;2.33;;;15.10;99.90;;;;;;5057671;28;20493;-63
2023/10/23 12:56:54;;;;;;;2.27;1.60;;;15.10;99.90;;;;;;5056220;28;20461;-63
2023/10/23 12:59:21;;;;;;;8.33;1.80;;;15.10;99.90;;;;;;5073583;28;20481;-63